Time;durP1;ratioP1;P1;durP2;ratioP2;P2;SDS_P1;SDS_P2;PMS_P1;PMS_P2;Temp;Humidity;BMP_temperature;BMP_pressure;BME280_temperature;BME280_humidity;BME280_pressure;Samples;Min_cycle;Max_cycle;Signal;HPM_P1;HPM_P2
2023/01/13 00:02:06;;;;;;;54.75;31.63;;;6.50;99.90;;;;;;4938380;29;20130;-91
2023/01/13 00:04:32;;;;;;;50.15;31.63;;;6.50;99.90;;;;;;4938181;29;20040;-92
2023/01/13 00:06:58;;;;;;;56.95;32.33;;;6.50;99.90;;;;;;4938402;29;20118;-93
2023/01/13 00:09:25;;;;;;;57.00;33.75;;;6.50;99.90;;;;;;4954160;29;20032;-90
2023/01/13 00:11:51;;;;;;;54.92;33.80;;;6.50;99.90;;;;;;4993277;28;20042;-89
2023/01/13 00:14:18;;;;;;;49.70;31.05;;;6.40;99.90;;;;;;5017158;28;20229;-91
2023/01/13 00:16:44;;;;;;;51.05;30.65;;;6.50;99.90;;;;;;5017315;28;20442;-90
2023/01/13 00:19:10;;;;;;;47.90;29.27;;;6.50;99.90;;;;;;5000739;28;20036;-92
2023/01/13 00:21:40;;;;;;;48.28;29.77;;;6.50;99.90;;;;;;5000765;28;20030;-92
2023/01/13 00:24:06;;;;;;;49.80;28.33;;;6.50;99.90;;;;;;5017325;28;20475;-93
2023/01/13 00:26:34;;;;;;;44.60;29.00;;;6.50;99.90;;;;;;5017317;28;20030;-90
2023/01/13 00:29:02;;;;;;;51.03;28.60;;;6.50;99.90;;;;;;5017065;28;20507;-90
2023/01/13 00:31:29;;;;;;;45.42;28.77;;;6.50;99.90;;;;;;5017003;28;20061;-91
2023/01/13 00:33:58;;;;;;;48.35;27.98;;;6.50;99.90;;;;;;5017389;28;20030;-91
2023/01/13 00:36:25;;;;;;;44.90;27.95;;;6.40;99.90;;;;;;5017523;28;20026;-89
2023/01/13 00:38:52;;;;;;;44.80;28.42;;;6.40;99.90;;;;;;5016888;28;20049;-92
2023/01/13 00:41:22;;;;;;;47.88;27.50;;;6.40;99.90;;;;;;5016842;28;20030;-92
2023/01/13 00:43:49;;;;;;;48.47;27.10;;;6.40;99.90;;;;;;5016935;28;20041;-92
2023/01/13 00:46:19;;;;;;;47.38;27.15;;;6.30;99.90;;;;;;5016803;28;20030;-93
2023/01/13 00:48:46;;;;;;;45.00;27.15;;;6.30;99.90;;;;;;5016467;28;20041;-91
2023/01/13 00:51:20;;;;;;;42.50;25.75;;;6.30;99.90;;;;;;5016388;28;20088;-91
2023/01/13 00:53:49;;;;;;;45.05;27.27;;;6.30;99.90;;;;;;5017422;28;20344;-92
2023/01/13 00:56:19;;;;;;;43.05;26.67;;;6.30;99.90;;;;;;5016445;28;20073;-91
2023/01/13 00:58:46;;;;;;;47.55;28.25;;;6.30;99.90;;;;;;5016566;28;20157;-90
2023/01/13 01:01:19;;;;;;;44.33;26.95;;;6.30;99.90;;;;;;5017053;28;20555;-91
2023/01/13 01:03:53;;;;;;;42.67;25.85;;;6.20;99.90;;;;;;5016361;28;20121;-92
2023/01/13 01:06:51;;;;;;;42.60;26.05;;;6.20;99.90;;;;;;5016986;28;20452;-92
2023/01/13 01:09:18;;;;;;;47.65;27.98;;;6.20;99.90;;;;;;4960800;28;20536;-90
2023/01/13 01:11:44;;;;;;;52.58;31.80;;;6.30;99.90;;;;;;4976215;28;20038;-91
2023/01/13 01:14:13;;;;;;;44.13;27.77;;;6.30;99.90;;;;;;4976315;28;20056;-90
2023/01/13 01:16:40;;;;;;;45.33;28.48;;;6.30;99.90;;;;;;4976278;28;20493;-90
2023/01/13 01:19:07;;;;;;;45.30;25.98;;;6.40;99.90;;;;;;4976354;28;20061;-90
2023/01/13 01:21:34;;;;;;;35.40;24.20;;;6.40;99.90;;;;;;4976154;28;20031;-91
2023/01/13 01:24:02;;;;;;;39.25;24.73;;;6.30;99.90;;;;;;4975887;28;20116;-90
2023/01/13 01:26:31;;;;;;;36.38;24.67;;;6.20;99.90;;;;;;4976264;28;20177;-89
2023/01/13 01:29:00;;;;;;;44.85;23.92;;;6.20;99.90;;;;;;4976298;28;20034;-89
2023/01/13 01:31:31;;;;;;;38.83;23.42;;;6.20;99.90;;;;;;4976630;28;20070;-90
2023/01/13 01:33:59;;;;;;;38.03;26.02;;;6.10;99.90;;;;;;4975815;28;20038;-91
2023/01/13 01:36:28;;;;;;;41.60;24.90;;;6.10;99.90;;;;;;4975981;28;20050;-91
2023/01/13 01:38:57;;;;;;;40.10;23.13;;;6.10;99.90;;;;;;4981034;28;20066;-92
2023/01/13 01:41:30;;;;;;;36.22;23.73;;;6.20;99.90;;;;;;5015513;28;20391;-91
2023/01/13 01:44:24;;;;;;;30.47;22.00;;;6.20;99.90;;;;;;4999443;28;20022;-89
2023/01/13 01:46:51;;;;;;;35.03;22.10;;;6.20;99.90;;;;;;5015667;28;20273;-92
2023/01/13 01:49:23;;;;;;;34.50;22.00;;;6.20;99.90;;;;;;4999374;28;20049;-91
2023/01/13 01:52:11;;;;;;;33.72;20.00;;;6.20;99.90;;;;;;5031647;28;20042;-90
2023/01/13 01:54:53;;;;;;;32.47;20.83;;;6.20;99.90;;;;;;4998953;28;20030;-91
2023/01/13 01:57:30;;;;;;;34.22;20.30;;;6.20;99.90;;;;;;5016154;28;20038;-92
2023/01/13 01:59:59;;;;;;;31.75;19.88;;;6.20;99.90;;;;;;5015060;28;20033;-91
2023/01/13 02:02:30;;;;;;;28.30;19.00;;;6.20;99.90;;;;;;5015247;28;20427;-91
2023/01/13 02:04:58;;;;;;;25.60;18.27;;;6.30;99.90;;;;;;5014611;28;20065;-90
2023/01/13 02:07:32;;;;;;;31.48;19.70;;;6.20;99.90;;;;;;4998311;28;20030;-90
2023/01/13 02:10:03;;;;;;;30.73;18.25;;;6.30;99.90;;;;;;4998094;28;20045;-90
2023/01/13 02:12:36;;;;;;;33.10;18.77;;;6.30;99.90;;;;;;4998101;28;20076;-91
2023/01/13 02:15:41;;;;;;;33.38;19.80;;;6.30;99.90;;;;;;4998174;28;20117;-90
2023/01/13 02:18:44;;;;;;;28.75;18.77;;;6.20;99.90;;;;;;5014274;28;20022;-91
2023/01/13 02:21:35;;;;;;;30.88;20.60;;;6.20;99.90;;;;;;5014014;28;20040;-90
2023/01/13 02:27:32;;;;;;;33.38;22.30;;;6.10;99.90;;;;;;5014168;28;20093;-92
2023/01/13 02:33:36;;;;;;;32.03;21.20;;;6.00;99.90;;;;;;5014101;28;20038;-91
2023/01/13 02:36:17;;;;;;;37.80;20.63;;;5.90;99.90;;;;;;5013555;28;20038;-92
2023/01/13 02:39:00;;;;;;;38.35;22.70;;;5.80;99.90;;;;;;5027749;28;20042;-92
2023/01/13 02:45:00;;;;;;;43.20;22.10;;;5.80;99.90;;;;;;4994724;28;20121;-92
2023/01/13 02:47:29;;;;;;;37.22;21.52;;;5.80;99.90;;;;;;4978722;28;20026;-94
2023/01/13 02:50:03;;;;;;;46.22;22.17;;;5.80;99.90;;;;;;4962641;28;20030;-92
2023/01/13 02:52:59;;;;;;;30.30;20.30;;;5.80;99.90;;;;;;4962488;28;20045;-90
2023/01/13 02:55:45;;;;;;;36.05;20.45;;;5.70;99.90;;;;;;4976854;28;20509;-91
2023/01/13 02:58:28;;;;;;;35.90;22.13;;;5.80;99.90;;;;;;4978516;28;20030;-93
2023/01/13 03:00:58;;;;;;;34.70;20.23;;;5.80;99.90;;;;;;4978401;28;20030;-88
2023/01/13 03:03:25;;;;;;;31.42;21.50;;;5.80;99.90;;;;;;4978226;28;20392;-90
2023/01/13 03:06:04;;;;;;;35.53;19.55;;;5.80;99.90;;;;;;4962392;28;20034;-90
2023/01/13 03:08:41;;;;;;;34.53;20.42;;;5.80;99.90;;;;;;4962108;28;20118;-92
2023/01/13 03:11:13;;;;;;;30.77;18.88;;;5.80;99.90;;;;;;4978231;28;20042;-90
2023/01/13 03:14:08;;;;;;;27.23;17.48;;;5.80;99.90;;;;;;4962278;28;20077;-92
2023/01/13 03:16:53;;;;;;;34.55;17.38;;;5.80;99.90;;;;;;4978323;28;20034;-89
2023/01/13 03:19:38;;;;;;;24.95;16.67;;;5.80;99.90;;;;;;4977989;28;20035;-93
2023/01/13 03:22:17;;;;;;;25.77;18.00;;;5.80;99.90;;;;;;4961895;28;20080;-93
2023/01/13 03:25:02;;;;;;;26.20;17.67;;;5.80;99.90;;;;;;4962145;28;20372;-92
2023/01/13 03:27:52;;;;;;;24.55;15.18;;;5.70;99.90;;;;;;4977930;28;20510;-94
2023/01/13 03:30:42;;;;;;;25.77;15.88;;;5.80;99.90;;;;;;4881836;29;20056;-92
2023/01/13 03:33:23;;;;;;;24.15;15.75;;;5.80;99.90;;;;;;4882210;29;20483;-89
2023/01/13 03:35:54;;;;;;;28.50;15.90;;;5.90;99.90;;;;;;4882375;29;20402;-91
2023/01/13 03:38:51;;;;;;;27.40;16.52;;;5.80;99.90;;;;;;4881719;29;20033;-91
2023/01/13 03:41:44;;;;;;;24.02;15.65;;;5.80;99.90;;;;;;4897076;29;20523;-92
2023/01/13 03:44:30;;;;;;;37.58;16.60;;;5.80;99.90;;;;;;4881901;29;20568;-92
2023/01/13 03:47:19;;;;;;;25.42;15.55;;;5.80;99.90;;;;;;4881871;29;20080;-93
2023/01/13 03:49:53;;;;;;;25.17;14.50;;;5.80;99.90;;;;;;4882004;29;20037;-92
2023/01/13 03:52:29;;;;;;;19.95;14.73;;;5.80;99.90;;;;;;4881810;29;20444;-93
2023/01/13 03:55:06;;;;;;;22.63;15.23;;;5.80;99.90;;;;;;4881853;29;20044;-94
2023/01/13 03:57:39;;;;;;;20.65;14.68;;;5.80;99.90;;;;;;4881651;29;20041;-92
2023/01/13 04:00:11;;;;;;;22.43;15.27;;;5.80;99.90;;;;;;4881783;29;20037;-92
2023/01/13 04:02:43;;;;;;;21.13;13.63;;;5.80;99.90;;;;;;4881721;29;20032;-91
2023/01/13 04:05:11;;;;;;;23.25;14.35;;;5.80;99.90;;;;;;4866127;29;20105;-93
2023/01/13 04:07:47;;;;;;;20.58;13.90;;;5.80;99.90;;;;;;4941543;28;20061;-91
2023/01/13 04:10:21;;;;;;;21.55;14.25;;;5.80;99.90;;;;;;4993661;28;20050;-93
2023/01/13 04:13:01;;;;;;;20.52;14.05;;;5.80;99.90;;;;;;4961654;28;20043;-93
2023/01/13 04:15:43;;;;;;;21.05;14.50;;;5.80;99.90;;;;;;4977540;28;20042;-92
2023/01/13 04:18:21;;;;;;;23.90;15.45;;;5.80;99.90;;;;;;4961142;28;20026;-90
2023/01/13 04:20:51;;;;;;;25.67;15.40;;;5.80;99.90;;;;;;4961382;28;20050;-91
2023/01/13 04:23:20;;;;;;;24.83;15.65;;;5.80;99.90;;;;;;4961300;28;20034;-90
2023/01/13 04:25:47;;;;;;;24.48;15.98;;;5.80;99.90;;;;;;4961212;28;20053;-92
2023/01/13 04:28:15;;;;;;;22.38;15.10;;;5.70;99.90;;;;;;4961178;28;20027;-92
2023/01/13 04:30:43;;;;;;;24.15;15.68;;;5.70;99.90;;;;;;4961005;28;20121;-93
2023/01/13 04:33:10;;;;;;;21.00;14.50;;;5.70;99.90;;;;;;4961159;28;20033;-93
2023/01/13 04:35:37;;;;;;;26.63;15.60;;;5.60;99.90;;;;;;4961319;28;20026;-92
2023/01/13 04:38:08;;;;;;;24.13;15.63;;;5.60;99.90;;;;;;4961187;28;20035;-92
2023/01/13 04:40:35;;;;;;;26.30;15.73;;;5.50;99.90;;;;;;4993736;28;20065;-92
2023/01/13 04:43:02;;;;;;;23.77;15.52;;;5.40;99.90;;;;;;5012716;28;20034;-91
2023/01/13 04:45:29;;;;;;;24.88;15.30;;;5.40;99.90;;;;;;4996600;28;20080;-91
2023/01/13 04:47:56;;;;;;;21.08;15.25;;;5.30;99.90;;;;;;5012653;28;20026;-92
2023/01/13 04:50:23;;;;;;;22.73;14.07;;;5.20;99.90;;;;;;5012873;28;20069;-90
2023/01/13 04:52:52;;;;;;;21.02;14.13;;;5.20;99.90;;;;;;5012744;28;20041;-92
2023/01/13 04:55:23;;;;;;;22.90;14.20;;;5.30;99.90;;;;;;5012983;28;20509;-91
2023/01/13 04:57:50;;;;;;;26.27;14.10;;;5.30;99.90;;;;;;5013207;28;20030;-93
2023/01/13 05:00:21;;;;;;;21.02;13.43;;;5.40;99.90;;;;;;5016488;28;20467;-93
2023/01/13 05:02:49;;;;;;;24.30;14.05;;;5.40;99.90;;;;;;5016547;28;20099;-91
2023/01/13 05:05:16;;;;;;;24.85;14.45;;;5.50;99.90;;;;;;5016411;28;20018;-92
2023/01/13 05:07:46;;;;;;;27.17;15.52;;;5.50;99.90;;;;;;5016217;28;20030;-92
2023/01/13 05:10:13;;;;;;;27.58;15.50;;;5.60;99.90;;;;;;4999928;28;20038;-92
2023/01/13 05:18:11;;;;;;;29.77;16.98;;;5.50;99.90;;;;;;5032512;28;20263;-91
2023/01/13 05:20:38;;;;;;;50.88;22.35;;;5.50;99.90;;;;;;5016415;28;20236;-91
2023/01/13 05:25:51;;;;;;;34.53;18.58;;;5.50;99.90;;;;;;5032485;28;20069;-93
2023/01/13 05:28:17;;;;;;;26.80;16.13;;;5.50;99.90;;;;;;5016052;28;20546;-92
2023/01/13 05:30:47;;;;;;;24.13;15.35;;;5.50;99.90;;;;;;5015758;28;20081;-94
2023/01/13 05:33:17;;;;;;;30.98;16.95;;;5.50;99.90;;;;;;4985566;28;20030;-92
2023/01/13 05:35:45;;;;;;;30.75;17.15;;;5.50;99.90;;;;;;4979804;28;20026;-92
2023/01/13 05:38:13;;;;;;;44.90;25.65;;;5.60;99.90;;;;;;4979988;28;20061;-91
2023/01/13 05:43:26;;;;;;;39.05;22.88;;;5.70;99.90;;;;;;5008485;28;20541;-93
2023/01/13 05:46:08;;;;;;;35.47;20.75;;;5.70;99.90;;;;;;5001002;28;20098;-94
2023/01/13 05:48:37;;;;;;;38.80;22.17;;;5.70;99.90;;;;;;4998331;28;20085;-91
2023/01/13 05:51:06;;;;;;;24.77;15.85;;;5.70;99.90;;;;;;4980183;28;20060;-92
2023/01/13 05:53:53;;;;;;;28.67;17.45;;;5.70;99.90;;;;;;4995199;28;20076;-91
2023/01/13 05:56:23;;;;;;;45.70;25.38;;;5.60;99.90;;;;;;4965448;28;20035;-93
2023/01/13 05:58:50;;;;;;;42.35;24.98;;;5.60;99.90;;;;;;4943934;28;20030;-92
2023/01/13 06:01:17;;;;;;;65.05;32.83;;;5.60;99.90;;;;;;4943845;28;20038;-92
2023/01/13 06:03:44;;;;;;;44.40;25.40;;;5.70;99.90;;;;;;4927787;28;20063;-92
2023/01/13 06:06:11;;;;;;;165.70;95.20;;;5.70;99.90;;;;;;4945594;28;20042;-93
2023/01/13 06:08:37;;;;;;;47.22;30.20;;;5.70;99.90;;;;;;4978478;28;20058;-93
2023/01/13 06:11:04;;;;;;;38.08;23.60;;;5.80;99.90;;;;;;4968806;28;20125;-94
2023/01/13 06:13:30;;;;;;;65.22;35.20;;;5.80;99.90;;;;;;4942796;28;20388;-93
2023/01/13 06:16:00;;;;;;;38.13;23.70;;;5.80;99.90;;;;;;4959657;28;20027;-92
2023/01/13 06:18:27;;;;;;;33.88;19.08;;;5.80;99.90;;;;;;4959826;28;20045;-93
2023/01/13 10:50:07;;;;;;;15.65;14.25;;;13.90;99.90;;;;;;5966681;23;20033;-91
2023/01/13 10:52:41;;;;;;;15.27;13.48;;;13.90;99.90;;;;;;4949676;28;20050;-91
2023/01/13 10:55:32;;;;;;;15.48;14.00;;;13.50;99.90;;;;;;4943750;28;20026;-91
2023/01/13 10:58:19;;;;;;;15.80;14.10;;;13.40;99.90;;;;;;4960071;28;20054;-91
2023/01/13 11:00:48;;;;;;;15.60;14.10;;;13.40;99.90;;;;;;4943600;28;20090;-89
2023/01/13 11:03:20;;;;;;;15.00;13.50;;;13.20;99.90;;;;;;4959399;28;20022;-91
2023/01/13 11:05:53;;;;;;;14.75;13.10;;;13.10;99.90;;;;;;4959142;28;20030;-93
2023/01/13 11:08:26;;;;;;;14.32;12.95;;;13.20;99.90;;;;;;4959154;28;20034;-92
2023/01/13 11:10:56;;;;;;;14.82;13.50;;;13.30;99.90;;;;;;4958937;28;20484;-90
2023/01/13 11:13:32;;;;;;;16.08;13.88;;;13.40;99.90;;;;;;4943894;28;20091;-91
2023/01/13 11:16:17;;;;;;;14.77;13.45;;;13.60;99.90;;;;;;4943256;28;20106;-93
2023/01/13 11:19:10;;;;;;;16.08;13.98;;;13.80;99.90;;;;;;4960667;28;20524;-91
2023/01/13 11:21:54;;;;;;;15.88;14.38;;;13.60;99.90;;;;;;4959263;28;20085;-92
2023/01/13 11:24:43;;;;;;;14.68;13.38;;;13.40;99.90;;;;;;4959305;28;20585;-90
2023/01/13 11:27:32;;;;;;;15.73;14.23;;;13.50;99.90;;;;;;4959084;28;20126;-90
2023/01/13 12:19:33;;;;;;;17.05;15.75;;;14.40;99.90;;;;;;5043579;23;20051;-93
2023/01/13 12:22:32;;;;;;;17.45;15.90;;;14.40;99.90;;;;;;4964986;28;20023;-92
2023/01/13 12:25:41;;;;;;;17.23;15.85;;;14.60;99.90;;;;;;4947289;28;20034;-94
2023/01/13 12:28:56;;;;;;;17.70;16.35;;;14.50;99.90;;;;;;4966593;28;20472;-92
2023/01/13 12:31:43;;;;;;;18.67;17.08;;;14.10;99.90;;;;;;4979633;28;20045;-93
2023/01/13 12:34:34;;;;;;;17.20;15.80;;;14.10;99.90;;;;;;4948192;28;20066;-92
2023/01/13 12:37:22;;;;;;;17.48;16.00;;;14.10;99.90;;;;;;4947897;28;20051;-91
2023/01/13 12:40:28;;;;;;;16.75;15.38;;;14.00;99.90;;;;;;4947027;28;20085;-94
2023/01/13 12:46:51;;;;;;;;;;;;;;;;;;;;;
2023/01/13 15:50:55;;;;;;;30.00;20.95;;;10.80;99.90;;;;;;4961833;28;20102;-91
2023/01/13 15:53:22;;;;;;;29.92;20.73;;;10.60;99.90;;;;;;4962854;28;20038;-93
2023/01/13 15:55:52;;;;;;;29.20;20.52;;;10.50;99.90;;;;;;4946026;28;20030;-91
2023/01/13 15:58:23;;;;;;;29.42;20.88;;;10.40;99.90;;;;;;4966741;28;20163;-92
2023/01/13 16:00:49;;;;;;;31.83;22.25;;;10.30;99.90;;;;;;4947897;29;20031;-93
2023/01/13 16:03:18;;;;;;;28.52;23.75;;;10.20;99.90;;;;;;4936480;28;20054;-92
2023/01/13 16:05:45;;;;;;;35.67;23.08;;;10.10;99.90;;;;;;4960047;28;20444;-92
2023/01/13 16:08:15;;;;;;;37.70;23.83;;;10.00;99.90;;;;;;4959845;28;20050;-91
2023/01/13 16:10:43;;;;;;;30.33;22.67;;;9.90;99.90;;;;;;4952735;28;20077;-92
2023/01/13 16:13:17;;;;;;;32.28;23.42;;;9.90;99.90;;;;;;4968575;28;20045;-92
2023/01/13 16:15:48;;;;;;;59.42;36.17;;;9.80;99.90;;;;;;4962155;28;20031;-93
2023/01/13 16:18:25;;;;;;;44.67;28.05;;;9.80;99.90;;;;;;4960375;28;20416;-93
2023/01/13 16:20:54;;;;;;;42.88;27.08;;;9.70;99.90;;;;;;4967117;28;20038;-92
2023/01/13 16:23:22;;;;;;;37.42;27.13;;;9.60;99.90;;;;;;4964674;28;20027;-91
2023/01/13 16:25:49;;;;;;;41.15;27.85;;;9.60;99.90;;;;;;4959873;28;20026;-90
2023/01/13 16:28:23;;;;;;;45.00;28.45;;;9.50;99.90;;;;;;4960066;28;20392;-92
2023/01/13 16:30:50;;;;;;;50.67;30.57;;;9.40;99.90;;;;;;4960192;28;20042;-92
2023/01/13 16:33:17;;;;;;;42.75;29.02;;;9.40;99.90;;;;;;4959925;28;20493;-93
2023/01/13 16:35:43;;;;;;;49.72;30.85;;;9.30;99.90;;;;;;4960059;28;20045;-92
2023/01/13 16:38:15;;;;;;;49.80;31.15;;;9.30;99.90;;;;;;4944393;28;20034;-91
2023/01/13 16:40:42;;;;;;;47.28;29.80;;;9.20;99.90;;;;;;4949841;28;20043;-92
2023/01/13 16:43:12;;;;;;;43.92;28.63;;;9.20;99.90;;;;;;4943860;28;20031;-92
2023/01/13 16:45:41;;;;;;;42.55;27.92;;;9.10;99.90;;;;;;4943927;28;20555;-92
2023/01/13 16:52:14;;;;;;;51.40;29.33;;;9.00;99.90;;;;;;4933332;28;20078;-92
2023/01/13 16:54:41;;;;;;;45.17;30.27;;;9.00;99.90;;;;;;4965468;28;20030;-93
2023/01/13 16:57:42;;;;;;;45.58;29.50;;;9.00;99.90;;;;;;4955140;28;20022;-94
2023/01/13 17:00:19;;;;;;;46.95;31.23;;;8.90;99.90;;;;;;4872800;29;20041;-92
2023/01/13 17:02:46;;;;;;;48.10;30.23;;;8.80;99.90;;;;;;4871429;29;20037;-92
2023/01/13 17:05:14;;;;;;;54.80;31.67;;;8.80;99.90;;;;;;4870943;29;20029;-93
2023/01/13 17:07:42;;;;;;;57.58;34.22;;;8.70;99.90;;;;;;4884197;29;20033;-92
2023/01/13 17:10:15;;;;;;;49.88;34.10;;;8.70;99.90;;;;;;4881575;29;20475;-91
2023/01/13 17:19:24;;;;;;;52.70;34.75;;;8.60;99.90;;;;;;5486979;23;20050;-92
2023/01/13 17:21:51;;;;;;;55.03;35.97;;;8.60;99.90;;;;;;4966802;28;20038;-92
2023/01/13 17:24:17;;;;;;;59.40;36.45;;;8.60;99.90;;;;;;4971381;28;20441;-92
2023/01/13 17:26:53;;;;;;;52.92;33.50;;;8.50;99.90;;;;;;4989287;28;20027;-91
2023/01/13 17:29:24;;;;;;;57.90;34.10;;;8.50;99.90;;;;;;4972781;28;20137;-92
2023/01/13 17:31:51;;;;;;;52.90;32.38;;;8.40;99.90;;;;;;4962789;28;20527;-93
2023/01/13 17:34:19;;;;;;;55.40;34.28;;;8.40;99.90;;;;;;4964014;28;20113;-92
2023/01/13 17:36:50;;;;;;;41.97;29.42;;;8.30;99.90;;;;;;4964608;28;20030;-94
2023/01/13 17:39:20;;;;;;;36.97;28.05;;;8.20;99.90;;;;;;4963296;28;20035;-91
2023/01/13 17:41:48;;;;;;;45.53;28.95;;;8.10;99.90;;;;;;4962574;28;20038;-91
2023/01/13 17:44:17;;;;;;;44.67;28.45;;;8.10;99.90;;;;;;4962077;28;20026;-92
2023/01/13 17:46:45;;;;;;;46.45;30.05;;;8.00;99.90;;;;;;4962421;28;20031;-91
2023/01/13 17:49:18;;;;;;;53.97;33.38;;;7.90;99.90;;;;;;4963991;28;20037;-92
2023/01/13 17:52:05;;;;;;;52.65;32.67;;;7.80;99.90;;;;;;4978030;28;20038;-93
2023/01/13 17:54:33;;;;;;;41.67;29.02;;;7.70;99.90;;;;;;4978170;28;20040;-92
2023/01/13 17:57:00;;;;;;;53.10;28.88;;;7.70;99.90;;;;;;4988397;28;20027;-92
2023/01/13 17:59:27;;;;;;;43.97;28.20;;;7.70;99.90;;;;;;4986720;28;20363;-93
2023/01/13 18:01:57;;;;;;;44.53;27.80;;;7.60;99.90;;;;;;4963813;28;20027;-93
2023/01/13 18:04:27;;;;;;;46.60;28.85;;;7.50;99.90;;;;;;4961928;28;20117;-91
2023/01/13 18:06:55;;;;;;;44.50;27.70;;;7.50;99.90;;;;;;4961979;28;20026;-91
2023/01/13 18:09:23;;;;;;;46.05;30.48;;;7.50;99.90;;;;;;4963244;28;20037;-94
2023/01/13 18:11:49;;;;;;;56.35;34.42;;;7.50;99.90;;;;;;4965690;28;20377;-93
2023/01/13 18:14:16;;;;;;;47.95;30.85;;;7.60;99.90;;;;;;4968181;28;20030;-92
2023/01/13 18:16:43;;;;;;;48.60;30.50;;;7.60;99.90;;;;;;4969107;28;20035;-93
2023/01/13 18:27:36;;;;;;;53.45;31.75;;;7.60;99.90;;;;;;4984115;28;20055;-92
2023/01/13 18:30:05;;;;;;;54.63;32.30;;;7.40;99.90;;;;;;4973568;28;20054;-93
2023/01/13 18:32:33;;;;;;;47.10;30.17;;;7.30;99.90;;;;;;4977692;28;20039;-91
2023/01/13 18:35:03;;;;;;;47.78;31.02;;;7.30;99.90;;;;;;4993371;28;20055;-92
2023/01/13 18:37:31;;;;;;;55.42;30.85;;;7.20;99.90;;;;;;4980863;28;20150;-92
2023/01/13 18:39:58;;;;;;;45.22;29.17;;;7.10;99.90;;;;;;4979190;28;20023;-93
2023/01/13 18:45:10;;;;;;;42.22;27.27;;;7.10;99.90;;;;;;5000020;28;20039;-92
2023/01/13 18:47:39;;;;;;;40.92;27.25;;;7.00;99.90;;;;;;4985611;28;20054;-91
2023/01/13 18:50:08;;;;;;;46.58;30.33;;;7.00;99.90;;;;;;4984233;28;20034;-92
2023/01/13 18:52:35;;;;;;;45.83;30.42;;;6.90;99.90;;;;;;4976042;28;20086;-90
2023/01/13 18:55:02;;;;;;;49.00;30.88;;;6.90;99.90;;;;;;4976587;28;20391;-92
2023/01/13 18:57:29;;;;;;;56.70;34.20;;;6.90;99.90;;;;;;4982453;28;20481;-91
2023/01/13 18:59:56;;;;;;;60.63;37.45;;;6.90;99.90;;;;;;4960671;28;20030;-92
2023/01/13 19:02:28;;;;;;;66.43;37.00;;;6.80;99.90;;;;;;4976096;28;20034;-90
2023/01/13 19:04:56;;;;;;;65.18;38.58;;;6.80;99.90;;;;;;4959878;28;20031;-90
2023/01/13 19:07:27;;;;;;;65.78;39.25;;;6.80;99.90;;;;;;4959498;28;20082;-90
2023/01/13 19:09:54;;;;;;;54.55;34.58;;;6.80;99.90;;;;;;4975679;28;20031;-90
2023/01/13 19:12:25;;;;;;;56.97;33.80;;;6.80;99.90;;;;;;4959533;28;20031;-90
2023/01/13 19:14:53;;;;;;;58.45;34.30;;;6.80;99.90;;;;;;4975545;28;20027;-89
2023/01/13 19:17:25;;;;;;;67.72;40.53;;;6.70;99.90;;;;;;4958469;28;20031;-89
2023/01/13 19:19:54;;;;;;;64.38;39.40;;;6.70;99.90;;;;;;4959571;28;20043;-90
2023/01/13 19:22:28;;;;;;;73.45;43.08;;;6.70;99.90;;;;;;4959527;28;20026;-91
2023/01/13 19:24:57;;;;;;;87.68;49.35;;;6.70;99.90;;;;;;4959584;28;20042;-90
2023/01/13 19:27:26;;;;;;;80.70;48.40;;;6.70;99.90;;;;;;4958878;28;20027;-90
2023/01/13 19:29:56;;;;;;;66.93;41.58;;;6.70;99.90;;;;;;4959741;28;20420;-91
2023/01/13 19:32:24;;;;;;;71.05;42.92;;;6.70;99.90;;;;;;4978842;28;20110;-87
2023/01/13 19:34:52;;;;;;;68.80;42.05;;;6.60;99.90;;;;;;4978072;28;20030;-87
2023/01/13 19:37:18;;;;;;;85.18;49.50;;;6.60;99.90;;;;;;4969418;28;20049;-87
2023/01/13 19:39:45;;;;;;;79.53;42.85;;;6.50;99.90;;;;;;4970645;28;20189;-92
2023/01/13 19:45:26;;;;;;;77.70;45.10;;;6.50;99.90;;;;;;4977739;28;20120;-91
2023/01/13 19:47:59;;;;;;;68.10;42.35;;;6.40;99.90;;;;;;4959804;28;20097;-92
2023/01/13 19:50:25;;;;;;;65.15;41.55;;;6.40;99.90;;;;;;4959637;28;20041;-92
2023/01/13 19:52:52;;;;;;;78.40;44.92;;;6.30;99.90;;;;;;4970970;28;20034;-91
2023/01/13 19:55:19;;;;;;;75.90;47.15;;;6.30;99.90;;;;;;4963520;28;20388;-92
2023/01/13 19:57:46;;;;;;;81.50;47.85;;;6.30;99.90;;;;;;4960123;28;20388;-92
2023/01/13 20:00:17;;;;;;;81.63;47.83;;;6.30;99.90;;;;;;4974284;28;20081;-91
2023/01/13 20:02:47;;;;;;;73.88;46.92;;;6.30;99.90;;;;;;4965829;28;20039;-92
2023/01/13 20:05:20;;;;;;;75.40;43.92;;;6.20;99.90;;;;;;4977275;28;20488;-91
2023/01/13 20:07:49;;;;;;;91.78;53.15;;;6.20;99.90;;;;;;4978848;28;20121;-92
2023/01/13 20:10:18;;;;;;;73.10;45.75;;;6.20;99.90;;;;;;4966408;28;20031;-92
2023/01/13 20:12:47;;;;;;;85.07;51.50;;;6.20;99.90;;;;;;4961762;28;20089;-91
2023/01/13 20:15:14;;;;;;;78.18;47.72;;;6.10;99.90;;;;;;4971188;28;20031;-92
2023/01/13 20:17:41;;;;;;;87.55;49.60;;;6.10;99.90;;;;;;4974994;28;20038;-92
2023/01/13 20:20:09;;;;;;;86.30;50.83;;;6.00;99.90;;;;;;4985877;23;20050;-92
2023/01/13 20:22:38;;;;;;;99.25;61.38;;;6.00;99.90;;;;;;4960189;28;20130;-93
2023/01/13 20:25:19;;;;;;;;;;;;;;;;;;;;;
2023/01/13 20:28:15;;;;;;;102.50;65.57;;;6.00;99.90;;;;;;4971069;28;20053;-92
2023/01/13 20:31:11;;;;;;;106.10;60.10;;;5.90;99.90;;;;;;4950873;29;20147;-93
2023/01/13 20:33:38;;;;;;;110.45;64.45;;;6.00;99.90;;;;;;4929392;29;20039;-91
2023/01/13 20:36:08;;;;;;;95.55;54.17;;;6.00;99.90;;;;;;4935345;29;20051;-92
2023/01/13 20:38:36;;;;;;;89.20;53.13;;;6.00;99.90;;;;;;4951400;23;20050;-90
2023/01/13 20:43:50;;;;;;;101.82;60.45;;;6.00;99.90;;;;;;4964291;28;20113;-92
2023/01/13 20:46:17;;;;;;;101.18;61.33;;;6.00;99.90;;;;;;4951893;29;20031;-92
2023/01/13 20:48:44;;;;;;;100.13;61.60;;;6.00;99.90;;;;;;4935232;29;20102;-91
2023/01/13 20:51:17;;;;;;;110.18;63.33;;;5.90;99.90;;;;;;4931110;29;20027;-93
2023/01/13 20:53:44;;;;;;;92.33;55.40;;;5.90;99.90;;;;;;4932907;29;20134;-92
2023/01/13 20:56:10;;;;;;;94.95;59.42;;;5.80;99.90;;;;;;4959554;29;20031;-93
2023/01/13 20:58:38;;;;;;;93.75;57.40;;;5.80;99.90;;;;;;4977384;28;20023;-91
2023/01/13 21:01:04;;;;;;;86.40;54.22;;;5.90;99.90;;;;;;4958597;29;20027;-92
2023/01/13 21:03:31;;;;;;;81.70;51.65;;;5.90;99.90;;;;;;4942789;29;20031;-92
2023/01/13 21:05:58;;;;;;;93.25;50.92;;;5.90;99.90;;;;;;4944941;28;20031;-91
2023/01/13 21:08:24;;;;;;;92.57;55.88;;;5.80;99.90;;;;;;4945365;28;20059;-92
2023/01/13 21:10:57;;;;;;;100.82;61.97;;;5.80;99.90;;;;;;4945346;28;20023;-91
2023/01/13 21:16:09;;;;;;;96.45;56.50;;;5.80;99.90;;;;;;4957768;29;20031;-92
2023/01/13 21:21:21;;;;;;;111.55;70.03;;;5.80;99.90;;;;;;4961305;28;20113;-92
2023/01/13 21:23:52;;;;;;;100.90;65.70;;;5.80;99.90;;;;;;4945304;28;20032;-92
2023/01/13 21:26:20;;;;;;;127.47;73.78;;;5.80;99.90;;;;;;4942100;29;20043;-93
2023/01/13 21:28:49;;;;;;;117.65;71.32;;;5.80;99.90;;;;;;4942157;29;20032;-92
2023/01/13 21:31:16;;;;;;;118.38;71.57;;;5.80;99.90;;;;;;4951544;29;20035;-91
2023/01/13 21:33:46;;;;;;;118.78;72.25;;;5.80;99.90;;;;;;4945286;28;20090;-91
2023/01/13 21:36:14;;;;;;;114.38;69.75;;;5.80;99.90;;;;;;4945160;28;20460;-92
2023/01/13 21:38:41;;;;;;;116.28;70.60;;;5.80;99.90;;;;;;4945135;28;20046;-92
2023/01/13 21:41:08;;;;;;;126.20;74.03;;;5.90;99.90;;;;;;4944384;28;20030;-89
2023/01/13 21:49:08;;;;;;;131.25;76.90;;;6.10;99.90;;;;;;4960860;28;20054;-93
2023/01/13 21:51:35;;;;;;;118.55;72.43;;;6.10;99.90;;;;;;4945674;28;20038;-91
2023/01/13 21:54:06;;;;;;;120.85;73.40;;;6.20;99.90;;;;;;4945131;28;20031;-91
2023/01/13 21:56:33;;;;;;;121.38;73.82;;;6.20;99.90;;;;;;4945521;28;20111;-91
2023/01/13 21:59:00;;;;;;;116.00;74.82;;;6.20;99.90;;;;;;4944583;28;20018;-91
2023/01/13 22:01:26;;;;;;;127.97;77.82;;;6.10;99.90;;;;;;4944349;28;20066;-92
2023/01/13 22:04:11;;;;;;;132.98;80.45;;;6.10;99.90;;;;;;4944370;28;20037;-91
2023/01/13 22:06:38;;;;;;;140.38;83.97;;;6.10;99.90;;;;;;4944378;28;20038;-91
2023/01/13 22:09:05;;;;;;;133.68;82.38;;;6.00;99.90;;;;;;4941082;29;20118;-91
2023/01/13 22:11:32;;;;;;;150.45;90.82;;;6.00;99.90;;;;;;4955123;29;20035;-92
2023/01/13 22:14:05;;;;;;;141.38;87.30;;;6.00;99.90;;;;;;4941244;29;20032;-92
2023/01/13 22:16:48;;;;;;;142.63;86.75;;;6.00;99.90;;;;;;4941532;29;20473;-91
2023/01/13 22:19:17;;;;;;;148.85;90.22;;;6.00;99.90;;;;;;4940827;29;20449;-92
2023/01/13 22:21:43;;;;;;;145.20;91.32;;;6.00;99.90;;;;;;4940965;29;20020;-90
2023/01/13 22:24:11;;;;;;;148.77;90.07;;;6.00;99.90;;;;;;4941228;28;20055;-90
2023/01/13 22:26:38;;;;;;;153.00;95.90;;;6.00;99.90;;;;;;4941305;29;20027;-91
2023/01/13 22:29:05;;;;;;;148.35;91.63;;;6.10;99.90;;;;;;4940721;29;20438;-93